Time;durP1;ratioP1;P1;durP2;ratioP2;P2;SDS_P1;SDS_P2;PMS_P1;PMS_P2;Temp;Humidity;BMP_temperature;BMP_pressure;BME280_temperature;BME280_humidity;BME280_pressure;Samples;Min_cycle;Max_cycle;Signal;HPM_P1;HPM_P2
2022/10/22 00:00:21;;;;;;;0.00;0.00;;;10.90;99.90;;;;;;4980645;28;20376;-75
2022/10/22 00:02:47;;;;;;;0.00;0.00;;;10.90;99.90;;;;;;4985571;28;20790;-75
2022/10/22 00:05:15;;;;;;;0.10;0.10;;;10.90;99.90;;;;;;4980606;28;20060;-75
2022/10/22 00:07:42;;;;;;;0.00;0.00;;;10.90;99.90;;;;;;4996141;28;20033;-75
2022/10/22 00:10:09;;;;;;;0.22;0.13;;;10.90;99.90;;;;;;4993170;28;20025;-75
2022/10/22 00:12:35;;;;;;;0.00;0.00;;;10.80;99.90;;;;;;4994268;28;20029;-75
2022/10/22 00:15:04;;;;;;;0.10;0.10;;;10.80;99.90;;;;;;4970764;28;20038;-75
2022/10/22 00:17:37;;;;;;;0.00;0.00;;;10.80;99.90;;;;;;4994238;28;20084;-75
2022/10/22 00:20:06;;;;;;;0.00;0.00;;;10.80;99.90;;;;;;4993934;28;20013;-75
2022/10/22 00:22:33;;;;;;;0.00;0.00;;;10.80;99.90;;;;;;4993692;28;20018;-75
2022/10/22 00:25:01;;;;;;;0.00;0.00;;;10.70;99.90;;;;;;4974337;28;20030;-75
2022/10/22 00:27:28;;;;;;;0.10;0.10;;;10.70;99.90;;;;;;4993959;28;20105;-74
2022/10/22 00:29:56;;;;;;;;;;;10.70;99.90;;;;;;4993575;28;20756;-74
2022/10/22 00:32:24;;;;;;;0.00;0.00;;;10.70;99.90;;;;;;4992900;28;19996;-75
2022/10/22 00:34:57;;;;;;;0.00;0.00;;;10.70;99.90;;;;;;4993290;28;20223;-75
2022/10/22 00:37:22;;;;;;;0.00;0.00;;;10.70;99.90;;;;;;4979466;28;21842;-75
2022/10/22 00:39:49;;;;;;;0.00;0.00;;;10.70;99.90;;;;;;4974281;28;20121;-75
2022/10/22 00:42:18;;;;;;;;;;;10.70;99.90;;;;;;4994910;28;20723;-75
2022/10/22 00:45:06;;;;;;;1.75;0.40;;;10.70;99.90;;;;;;4995980;28;20044;-75
2022/10/22 00:47:43;;;;;;;0.00;0.00;;;10.70;99.90;;;;;;4974317;28;20014;-79
2022/10/22 00:50:20;;;;;;;0.25;0.25;;;10.60;99.90;;;;;;4990983;28;20471;-74
2022/10/22 00:52:46;;;;;;;0.00;0.00;;;10.60;99.90;;;;;;4989339;28;20037;-75
2022/10/22 00:55:26;;;;;;;0.47;0.17;;;10.50;99.90;;;;;;4987680;28;20021;-75
2022/10/22 00:57:56;;;;;;;0.00;0.00;;;10.50;99.90;;;;;;4993164;28;20022;-75
2022/10/22 01:00:25;;;;;;;0.00;0.00;;;10.50;99.90;;;;;;4991262;28;21840;-75
2022/10/22 01:02:53;;;;;;;0.00;0.00;;;10.40;99.90;;;;;;4988420;28;20018;-74
2022/10/22 01:05:32;;;;;;;0.00;0.00;;;10.50;99.90;;;;;;4993030;28;20023;-75
2022/10/22 01:08:18;;;;;;;0.00;0.00;;;10.40;99.90;;;;;;4992769;28;20041;-75
2022/10/22 01:11:10;;;;;;;0.00;0.00;;;10.30;99.90;;;;;;4990706;28;20037;-76
2022/10/22 01:13:49;;;;;;;0.10;0.05;;;10.30;99.90;;;;;;4990466;28;20036;-77
2022/10/22 01:16:23;;;;;;;0.00;0.00;;;10.30;99.90;;;;;;4993949;28;20022;-75
2022/10/22 01:19:19;;;;;;;0.00;0.00;;;10.30;99.90;;;;;;4991164;28;20022;-75
2022/10/22 01:21:52;;;;;;;0.00;0.00;;;10.30;99.90;;;;;;4977639;28;20025;-75
2022/10/22 01:24:34;;;;;;;0.00;0.00;;;10.20;99.90;;;;;;4976274;28;20075;-76
2022/10/22 01:27:33;;;;;;;0.00;0.00;;;10.20;99.90;;;;;;4990122;28;20030;-75
2022/10/22 01:30:06;;;;;;;0.00;0.00;;;10.20;99.90;;;;;;4991699;28;20042;-75
2022/10/22 01:32:47;;;;;;;0.00;0.00;;;10.20;99.90;;;;;;4984705;28;20111;-75
2022/10/22 01:35:28;;;;;;;0.00;0.00;;;10.20;99.90;;;;;;4977204;28;20021;-76
2022/10/22 01:38:12;;;;;;;0.00;0.00;;;10.20;99.90;;;;;;4978497;28;20032;-75
2022/10/22 01:40:46;;;;;;;0.00;0.00;;;10.20;99.90;;;;;;4988652;28;20026;-75
2022/10/22 01:43:11;;;;;;;0.00;0.00;;;10.20;99.90;;;;;;4993408;28;20026;-75
2022/10/22 01:45:45;;;;;;;0.00;0.00;;;10.20;99.90;;;;;;4990357;28;20025;-75
2022/10/22 01:48:49;;;;;;;0.17;0.17;;;10.20;99.90;;;;;;4995026;28;20032;-75
2022/10/22 01:51:54;;;;;;;0.00;0.00;;;10.20;99.90;;;;;;4989265;28;20028;-75
2022/10/22 01:54:50;;;;;;;0.00;0.00;;;10.10;99.90;;;;;;4990449;28;20065;-75
2022/10/22 01:57:42;;;;;;;0.00;0.00;;;10.10;99.90;;;;;;4997134;28;20018;-75
2022/10/22 02:00:11;;;;;;;0.00;0.00;;;10.00;99.90;;;;;;4975966;28;20041;-75
2022/10/22 02:02:56;;;;;;;0.93;0.90;;;10.00;99.90;;;;;;4990649;28;20027;-75
2022/10/22 02:05:24;;;;;;;0.13;0.13;;;10.00;99.90;;;;;;4993337;28;20100;-76
2022/10/22 02:08:11;;;;;;;0.00;0.00;;;10.00;99.90;;;;;;4994637;28;20049;-76
2022/10/22 02:10:38;;;;;;;0.00;0.00;;;9.90;99.90;;;;;;4988811;28;20644;-75
2022/10/22 02:13:08;;;;;;;0.00;0.00;;;10.00;99.90;;;;;;4995761;28;20034;-75
2022/10/22 02:15:44;;;;;;;0.00;0.00;;;10.00;99.90;;;;;;5003086;28;20121;-75
2022/10/22 02:18:10;;;;;;;0.00;0.00;;;10.00;99.90;;;;;;4995479;28;20092;-75
2022/10/22 02:20:48;;;;;;;0.00;0.00;;;10.00;99.90;;;;;;4988565;28;20010;-76
2022/10/22 02:23:15;;;;;;;0.00;0.00;;;9.90;99.90;;;;;;4993986;28;20061;-76
2022/10/22 02:25:48;;;;;;;0.00;0.00;;;9.90;99.90;;;;;;4973411;28;20026;-75
2022/10/22 02:28:37;;;;;;;0.00;0.00;;;9.90;99.90;;;;;;5002660;28;20024;-76
2022/10/22 02:31:15;;;;;;;0.00;0.00;;;9.90;99.90;;;;;;4999868;28;20106;-76
2022/10/22 02:33:51;;;;;;;0.00;0.00;;;10.00;99.90;;;;;;4992920;28;20050;-76
2022/10/22 02:36:20;;;;;;;0.00;0.00;;;10.00;99.90;;;;;;4996131;28;20042;-75
2022/10/22 02:38:49;;;;;;;0.10;0.10;;;10.00;99.90;;;;;;4994590;28;20018;-76
2022/10/22 02:41:16;;;;;;;0.08;0.08;;;10.00;99.90;;;;;;5001337;28;20026;-77
2022/10/22 02:43:53;;;;;;;0.00;0.00;;;9.90;99.90;;;;;;4989824;28;20610;-76
2022/10/22 02:46:20;;;;;;;0.00;0.00;;;9.90;99.90;;;;;;4992209;28;20053;-76
2022/10/22 02:48:52;;;;;;;0.00;0.00;;;9.90;99.90;;;;;;4992393;28;20415;-76
2022/10/22 02:51:17;;;;;;;0.30;0.30;;;9.90;99.90;;;;;;4992096;28;20533;-75
2022/10/22 02:53:44;;;;;;;0.10;0.10;;;9.90;99.90;;;;;;4992996;28;20022;-75
2022/10/22 02:56:15;;;;;;;0.00;0.00;;;9.80;99.90;;;;;;4982401;28;20037;-75
2022/10/22 02:58:43;;;;;;;0.00;0.00;;;9.80;99.90;;;;;;4995097;28;20047;-75
2022/10/22 03:01:08;;;;;;;0.00;0.00;;;9.80;99.90;;;;;;4981514;28;20042;-76
2022/10/22 03:03:34;;;;;;;0.00;0.00;;;9.70;99.90;;;;;;5003272;28;20143;-77
2022/10/22 03:06:01;;;;;;;0.10;0.10;;;9.70;99.90;;;;;;4997412;28;20021;-75
2022/10/22 03:08:27;;;;;;;0.00;0.00;;;9.70;99.90;;;;;;4980303;28;20093;-76
2022/10/22 03:10:52;;;;;;;0.00;0.00;;;9.70;99.90;;;;;;4992779;28;20948;-76
2022/10/22 03:13:18;;;;;;;0.00;0.00;;;9.60;99.90;;;;;;4994301;28;20034;-75
2022/10/22 03:15:48;;;;;;;0.20;0.20;;;9.60;99.90;;;;;;4979759;28;20025;-76
2022/10/22 03:18:19;;;;;;;0.30;0.20;;;9.50;99.90;;;;;;4978827;28;20018;-76
2022/10/22 03:20:45;;;;;;;0.00;0.00;;;9.50;99.90;;;;;;4997726;28;20029;-76
2022/10/22 03:23:18;;;;;;;0.00;0.00;;;9.50;99.90;;;;;;4982623;28;20030;-76
2022/10/22 03:25:50;;;;;;;0.00;0.00;;;9.50;99.90;;;;;;4987298;28;20026;-76
2022/10/22 03:28:17;;;;;;;0.00;0.00;;;9.50;99.90;;;;;;5001868;28;20025;-75
2022/10/22 03:30:43;;;;;;;0.00;0.00;;;9.60;99.90;;;;;;4979765;28;20096;-77
2022/10/22 03:33:18;;;;;;;0.00;0.00;;;9.60;99.90;;;;;;4982022;28;20479;-76
2022/10/22 03:35:46;;;;;;;0.00;0.00;;;9.60;99.90;;;;;;4992170;28;20018;-76
2022/10/22 03:38:14;;;;;;;0.00;0.00;;;9.60;99.90;;;;;;4977378;28;20029;-76
2022/10/22 03:40:42;;;;;;;0.00;0.00;;;9.60;99.90;;;;;;4984477;28;20026;-76
2022/10/22 03:43:08;;;;;;;0.00;0.00;;;9.60;99.90;;;;;;4987678;28;20021;-75
2022/10/22 03:45:35;;;;;;;0.00;0.00;;;9.50;99.90;;;;;;4992860;28;20032;-75
2022/10/22 03:48:02;;;;;;;0.00;0.00;;;9.50;99.90;;;;;;4992321;28;20388;-77
2022/10/22 03:50:27;;;;;;;0.00;0.00;;;9.40;99.90;;;;;;4995252;28;20085;-75
2022/10/22 03:52:58;;;;;;;0.00;0.00;;;9.40;99.90;;;;;;4990571;28;20030;-77
2022/10/22 03:55:28;;;;;;;0.00;0.00;;;9.40;99.90;;;;;;4998248;28;20029;-75
2022/10/22 03:57:55;;;;;;;0.00;0.00;;;9.40;99.90;;;;;;4989023;28;20629;-76
2022/10/22 04:00:24;;;;;;;0.00;0.00;;;9.30;99.90;;;;;;4995369;28;20468;-76
2022/10/22 04:02:50;;;;;;;0.55;0.28;;;9.30;99.90;;;;;;4992437;28;20510;-76
2022/10/22 04:05:16;;;;;;;0.00;0.00;;;9.30;99.90;;;;;;4974497;28;20014;-77
2022/10/22 04:07:42;;;;;;;0.00;0.00;;;9.20;99.90;;;;;;4995705;28;20837;-75
2022/10/22 04:10:09;;;;;;;0.00;0.00;;;9.20;99.90;;;;;;4996745;28;20028;-76
2022/10/22 04:12:35;;;;;;;;;;;9.20;99.90;;;;;;4985943;28;20022;-75
2022/10/22 04:15:08;;;;;;;0.00;0.00;;;9.20;99.90;;;;;;4991965;28;20389;-75
2022/10/22 04:17:37;;;;;;;0.00;0.00;;;9.20;99.90;;;;;;4977793;28;20057;-75
2022/10/22 04:20:09;;;;;;;0.00;0.00;;;9.10;99.90;;;;;;4979783;28;20379;-75
2022/10/22 04:22:50;;;;;;;0.85;0.30;;;9.20;99.90;;;;;;4984144;28;20914;-76
2022/10/22 04:25:16;;;;;;;0.00;0.00;;;9.10;99.90;;;;;;4996999;28;20141;-76
2022/10/22 04:27:50;;;;;;;0.00;0.00;;;9.20;99.90;;;;;;4997002;28;20096;-75
2022/10/22 04:30:17;;;;;;;0.17;0.17;;;9.10;99.90;;;;;;4993811;28;20023;-76
2022/10/22 04:32:43;;;;;;;;;;;9.10;99.90;;;;;;4993717;28;20025;-75
2022/10/22 04:35:09;;;;;;;0.00;0.00;;;9.20;99.90;;;;;;4994287;28;19911;-76
2022/10/22 04:37:36;;;;;;;;;;;9.20;99.90;;;;;;4992090;28;20420;-76
2022/10/22 04:40:08;;;;;;;0.00;0.00;;;9.20;99.90;;;;;;4997417;28;19952;-75
2022/10/22 04:42:38;;;;;;;0.98;0.85;;;9.30;99.90;;;;;;4974167;28;20117;-75
2022/10/22 04:45:05;;;;;;;0.00;0.00;;;9.30;99.90;;;;;;4994786;28;20032;-76
2022/10/22 04:47:31;;;;;;;0.10;0.10;;;9.40;99.90;;;;;;4998488;28;20029;-76
2022/10/22 04:49:57;;;;;;;0.00;0.00;;;9.40;99.90;;;;;;4994948;28;20152;-75
2022/10/22 04:52:23;;;;;;;0.00;0.00;;;9.60;99.90;;;;;;4974999;28;20037;-75
2022/10/22 04:54:49;;;;;;;;;;;9.60;99.90;;;;;;4983014;28;20364;-76
2022/10/22 04:57:19;;;;;;;0.00;0.00;;;9.70;99.90;;;;;;4980231;28;19906;-75
2022/10/22 04:59:47;;;;;;;0.00;0.00;;;9.70;99.90;;;;;;4980501;28;20018;-75
2022/10/22 05:02:18;;;;;;;0.00;0.00;;;9.70;99.90;;;;;;4978151;28;20378;-76
2022/10/22 05:04:44;;;;;;;0.00;0.00;;;9.70;99.90;;;;;;4979017;28;20045;-76
2022/10/22 05:07:11;;;;;;;0.00;0.00;;;9.80;99.90;;;;;;4989895;28;20124;-76
2022/10/22 05:09:38;;;;;;;;;;;9.80;99.90;;;;;;4982472;28;20386;-75
2022/10/22 05:12:05;;;;;;;0.00;0.00;;;9.80;99.90;;;;;;4993608;28;19910;-76
2022/10/22 05:14:31;;;;;;;0.00;0.00;;;9.90;99.90;;;;;;4993892;28;20033;-75
2022/10/22 05:16:57;;;;;;;0.00;0.00;;;9.90;99.90;;;;;;4979600;28;20054;-75
2022/10/22 05:19:30;;;;;;;0.00;0.00;;;9.90;99.90;;;;;;4979332;28;20026;-76
2022/10/22 05:21:58;;;;;;;0.10;0.10;;;9.80;99.90;;;;;;4978678;28;20061;-75
2022/10/22 05:24:32;;;;;;;0.00;0.00;;;9.90;99.90;;;;;;4996734;28;20030;-75
2022/10/22 05:26:59;;;;;;;0.00;0.00;;;9.80;99.90;;;;;;4993301;28;20091;-75
2022/10/22 05:29:26;;;;;;;0.00;0.00;;;9.90;99.90;;;;;;4996397;28;20056;-75
2022/10/22 05:31:55;;;;;;;0.00;0.00;;;9.90;99.90;;;;;;4995223;28;20084;-76
2022/10/22 05:34:21;;;;;;;0.00;0.00;;;10.00;99.90;;;;;;4971644;28;20023;-76
2022/10/22 05:36:52;;;;;;;0.00;0.00;;;10.00;99.90;;;;;;4994837;28;20018;-76
2022/10/22 05:39:18;;;;;;;0.00;0.00;;;10.00;99.90;;;;;;4974387;28;20022;-75
2022/10/22 05:41:44;;;;;;;;;;;10.00;99.90;;;;;;4998948;28;20088;-76
2022/10/22 05:44:12;;;;;;;0.00;0.00;;;10.00;99.90;;;;;;4966720;28;20347;-75
2022/10/22 05:46:39;;;;;;;0.00;0.00;;;9.80;99.90;;;;;;4994146;28;20082;-79
2022/10/22 05:49:12;;;;;;;;;;;9.90;99.90;;;;;;5015849;28;20041;-76
2022/10/22 05:51:37;;;;;;;0.00;0.00;;;10.00;99.90;;;;;;4987406;28;19937;-76
2022/10/22 05:54:16;;;;;;;0.00;0.00;;;10.10;99.90;;;;;;4973091;28;20492;-76
2022/10/22 05:56:41;;;;;;;0.00;0.00;;;9.90;99.90;;;;;;4975023;28;20030;-78
2022/10/22 05:59:10;;;;;;;0.10;0.10;;;9.80;99.90;;;;;;4991725;28;20120;-77
2022/10/22 06:01:38;;;;;;;0.00;0.00;;;9.80;99.90;;;;;;4994288;28;20112;-76
2022/10/22 06:04:27;;;;;;;0.00;0.00;;;10.00;99.90;;;;;;4977678;28;20029;-76
2022/10/22 06:06:53;;;;;;;0.00;0.00;;;10.20;99.90;;;;;;4993950;28;20025;-77
2022/10/22 06:09:35;;;;;;;0.00;0.00;;;10.30;99.90;;;;;;4978841;28;20041;-77
2022/10/22 06:12:03;;;;;;;0.00;0.00;;;10.40;99.90;;;;;;4980185;28;20118;-77
2022/10/22 06:14:31;;;;;;;0.00;0.00;;;10.60;99.90;;;;;;4993031;28;20038;-78
2022/10/22 06:17:01;;;;;;;0.00;0.00;;;10.70;99.90;;;;;;4993990;28;20025;-77
2022/10/22 06:19:30;;;;;;;0.10;0.10;;;10.90;99.90;;;;;;4996095;28;20032;-77
2022/10/22 06:21:57;;;;;;;0.80;0.32;;;10.90;99.90;;;;;;4996975;28;20046;-76
2022/10/22 06:24:23;;;;;;;1.40;0.65;;;11.10;99.90;;;;;;4990653;28;20098;-76
2022/10/22 06:26:58;;;;;;;0.00;0.00;;;11.30;99.90;;;;;;4998940;28;20022;-76
2022/10/22 06:29:26;;;;;;;0.40;0.22;;;11.80;99.90;;;;;;4984413;28;20097;-76
2022/10/22 06:31:53;;;;;;;0.00;0.00;;;12.00;99.90;;;;;;4992598;28;20033;-76
2022/10/22 06:34:23;;;;;;;;;;;12.30;99.90;;;;;;4991727;28;20467;-76
2022/10/22 06:36:50;;;;;;;0.00;0.00;;;12.50;99.90;;;;;;4990745;28;19905;-76
2022/10/22 06:39:17;;;;;;;0.00;0.00;;;12.90;99.90;;;;;;4991062;28;20026;-76
2022/10/22 06:41:45;;;;;;;0.00;0.00;;;13.30;99.90;;;;;;4995826;28;20105;-76
2022/10/22 06:44:17;;;;;;;0.00;0.00;;;12.80;99.90;;;;;;4977261;28;20105;-75
2022/10/22 06:46:52;;;;;;;0.03;0.03;;;12.50;99.90;;;;;;4995674;28;20045;-76
2022/10/22 06:49:25;;;;;;;0.00;0.00;;;12.60;99.90;;;;;;4983778;28;20375;-76
2022/10/22 06:51:52;;;;;;;0.00;0.00;;;13.00;99.90;;;;;;4994586;28;20026;-77
2022/10/22 06:54:21;;;;;;;0.00;0.00;;;13.40;99.90;;;;;;4994017;28;20018;-76
2022/10/22 06:56:48;;;;;;;0.00;0.00;;;13.90;99.90;;;;;;5002481;28;20018;-76
2022/10/22 06:59:16;;;;;;;;;;;14.20;99.90;;;;;;4997767;28;20045;-75
2022/10/22 07:01:44;;;;;;;0.00;0.00;;;14.40;99.90;;;;;;4998552;28;19905;-76
2022/10/22 07:04:11;;;;;;;0.10;0.10;;;14.40;99.90;;;;;;5004797;28;20022;-76
2022/10/22 07:06:39;;;;;;;0.00;0.00;;;14.50;99.90;;;;;;5001427;28;20102;-76
2022/10/22 07:09:10;;;;;;;0.20;0.20;;;14.50;99.90;;;;;;4995039;28;20035;-76
2022/10/22 07:11:44;;;;;;;0.00;0.00;;;14.50;99.90;;;;;;4988367;28;20060;-75
2022/10/22 07:14:13;;;;;;;0.10;0.10;;;14.50;99.90;;;;;;4976394;28;20030;-75
2022/10/22 07:16:47;;;;;;;0.00;0.00;;;14.60;99.90;;;;;;4999089;28;20092;-78
2022/10/22 07:19:15;;;;;;;0.00;0.00;;;14.60;99.90;;;;;;4998755;28;20014;-76
2022/10/22 07:21:45;;;;;;;0.00;0.00;;;14.50;99.90;;;;;;4996690;28;20255;-75
2022/10/22 07:24:13;;;;;;;0.00;0.00;;;14.40;99.90;;;;;;5000454;28;20030;-77
2022/10/22 07:26:38;;;;;;;0.08;0.03;;;14.20;99.90;;;;;;5000198;28;20467;-75
2022/10/22 07:29:04;;;;;;;0.00;0.00;;;14.00;99.90;;;;;;4999095;28;20030;-75
2022/10/22 07:31:31;;;;;;;0.00;0.00;;;13.80;99.90;;;;;;4971312;28;20521;-75
2022/10/22 07:33:58;;;;;;;;;;;13.70;99.90;;;;;;4994729;28;20502;-75
2022/10/22 07:36:25;;;;;;;0.00;0.00;;;13.60;99.90;;;;;;4997577;28;20473;-76
2022/10/22 07:39:00;;;;;;;0.00;0.00;;;13.50;99.90;;;;;;4978016;28;20091;-76
2022/10/22 07:41:28;;;;;;;0.10;0.10;;;13.50;99.90;;;;;;4995952;28;20030;-75
2022/10/22 07:43:54;;;;;;;0.00;0.00;;;13.60;99.90;;;;;;4994543;28;20079;-76
2022/10/22 07:46:22;;;;;;;0.22;0.03;;;13.70;99.90;;;;;;4991082;28;20026;-75
2022/10/22 07:48:55;;;;;;;0.00;0.00;;;13.80;99.90;;;;;;4984741;28;20072;-75
2022/10/22 07:51:22;;;;;;;0.10;0.10;;;13.80;99.90;;;;;;4995354;28;20040;-75
2022/10/22 07:53:48;;;;;;;0.00;0.00;;;13.80;99.90;;;;;;4975357;28;20034;-77
2022/10/22 07:56:14;;;;;;;0.00;0.00;;;13.50;99.90;;;;;;4983044;28;20018;-75
2022/10/22 07:58:41;;;;;;;0.00;0.00;;;13.40;99.90;;;;;;4978543;28;20033;-75
2022/10/22 08:01:08;;;;;;;0.00;0.00;;;12.90;99.90;;;;;;4996463;28;20037;-75
2022/10/22 08:03:35;;;;;;;0.10;0.10;;;12.80;99.90;;;;;;4981746;28;20109;-75
2022/10/22 08:06:01;;;;;;;;;;;12.70;99.90;;;;;;4992468;28;20022;-75
2022/10/22 08:08:29;;;;;;;0.90;0.10;;;12.70;99.90;;;;;;4992081;28;19909;-75
2022/10/22 08:11:00;;;;;;;0.00;0.00;;;12.40;99.90;;;;;;4991525;28;20070;-75
2022/10/22 08:13:26;;;;;;;0.00;0.00;;;12.50;99.90;;;;;;4992295;28;20072;-75
2022/10/22 08:15:54;;;;;;;0.00;0.00;;;12.50;99.90;;;;;;4989079;28;20585;-76
2022/10/22 08:18:21;;;;;;;0.00;0.00;;;12.50;99.90;;;;;;4982221;28;20025;-76
2022/10/22 08:20:53;;;;;;;0.00;0.00;;;12.50;99.90;;;;;;4975422;28;20704;-76
2022/10/22 08:23:20;;;;;;;0.35;0.35;;;12.30;99.90;;;;;;4993979;28;20025;-76
2022/10/22 08:25:52;;;;;;;0.55;0.40;;;12.40;99.90;;;;;;4990390;28;20467;-77
2022/10/22 08:28:20;;;;;;;0.30;0.10;;;12.50;99.90;;;;;;4992137;28;20036;-75
2022/10/22 08:30:49;;;;;;;0.00;0.00;;;12.60;99.90;;;;;;4998883;28;20474;-76
2022/10/22 08:33:20;;;;;;;0.28;0.28;;;12.80;99.90;;;;;;4981907;28;20105;-75
2022/10/22 08:35:50;;;;;;;0.00;0.00;;;12.90;99.90;;;;;;4994173;28;20026;-75
2022/10/22 08:38:18;;;;;;;0.15;0.13;;;12.90;99.90;;;;;;4980433;28;20041;-75
2022/10/22 08:40:50;;;;;;;0.17;0.17;;;12.90;99.90;;;;;;4997250;28;20032;-75
2022/10/22 08:43:54;;;;;;;0.00;0.00;;;13.00;99.90;;;;;;4994385;28;20026;-76
2022/10/22 08:46:41;;;;;;;0.00;0.00;;;13.00;99.90;;;;;;4979285;28;20022;-75
2022/10/22 08:49:19;;;;;;;0.00;0.00;;;13.10;99.90;;;;;;4991590;28;20053;-75
2022/10/22 08:51:46;;;;;;;0.10;0.10;;;13.00;99.90;;;;;;4991447;28;20101;-75
2022/10/22 08:54:32;;;;;;;0.00;0.00;;;13.00;99.90;;;;;;4992017;28;20658;-75
2022/10/22 08:57:07;;;;;;;0.00;0.00;;;13.00;99.90;;;;;;4998276;28;20049;-75
2022/10/22 08:59:52;;;;;;;2.13;0.52;;;12.90;99.90;;;;;;4990957;28;20018;-74
2022/10/22 09:02:37;;;;;;;0.00;0.00;;;12.90;99.90;;;;;;4992300;28;20014;-74
2022/10/22 09:05:20;;;;;;;0.03;0.03;;;12.90;99.90;;;;;;4989050;28;20069;-74
2022/10/22 09:07:49;;;;;;;0.70;0.70;;;12.80;99.90;;;;;;4986144;28;20735;-75
2022/10/22 09:10:30;;;;;;;0.00;0.00;;;12.80;99.90;;;;;;4996297;28;20018;-75
2022/10/22 09:12:58;;;;;;;0.08;0.08;;;12.80;99.90;;;;;;4973177;28;20427;-75
2022/10/22 09:15:25;;;;;;;0.00;0.00;;;12.70;99.90;;;;;;4973681;28;20036;-75
2022/10/22 09:18:22;;;;;;;0.08;0.08;;;12.80;99.90;;;;;;4979413;28;20021;-76
2022/10/22 09:21:12;;;;;;;0.45;0.45;;;12.80;99.90;;;;;;4897752;29;20028;-76
2022/10/22 09:24:05;;;;;;;0.22;0.20;;;12.90;99.90;;;;;;4918920;29;20027;-76
2022/10/22 09:26:36;;;;;;;0.00;0.00;;;13.00;99.90;;;;;;4993538;28;20034;-76
2022/10/22 09:29:03;;;;;;;0.00;0.00;;;13.10;99.90;;;;;;4993881;28;20156;-75
2022/10/22 09:31:35;;;;;;;3.30;0.55;;;13.10;99.90;;;;;;4974270;28;20034;-76
2022/10/22 09:34:06;;;;;;;0.15;0.15;;;13.20;99.90;;;;;;4984817;28;20033;-77
2022/10/22 09:36:40;;;;;;;0.00;0.00;;;13.30;99.90;;;;;;4974153;28;20832;-77
2022/10/22 09:39:21;;;;;;;0.00;0.00;;;13.40;99.90;;;;;;4991429;28;20061;-77
2022/10/22 09:41:54;;;;;;;0.05;0.05;;;13.40;99.90;;;;;;4996543;28;20022;-77
2022/10/22 09:44:22;;;;;;;0.00;0.00;;;13.50;99.90;;;;;;4980383;28;20044;-76
2022/10/22 09:46:51;;;;;;;0.38;0.20;;;13.60;99.90;;;;;;4990975;28;20034;-77
2022/10/22 09:49:31;;;;;;;0.08;0.08;;;13.70;99.90;;;;;;4991533;28;20029;-76
2022/10/22 09:52:02;;;;;;;0.00;0.00;;;13.70;99.90;;;;;;4992141;28;20384;-76
2022/10/22 09:54:38;;;;;;;0.00;0.00;;;13.70;99.90;;;;;;4976091;28;20729;-68
2022/10/22 09:57:16;;;;;;;0.00;0.00;;;13.80;99.90;;;;;;4983988;28;20080;-67
2022/10/22 09:59:46;;;;;;;0.00;0.00;;;14.00;99.90;;;;;;4993808;28;20024;-76
2022/10/22 10:02:20;;;;;;;0.00;0.00;;;14.10;99.90;;;;;;4994005;28;20036;-78
2022/10/22 10:04:49;;;;;;;0.00;0.00;;;14.30;99.90;;;;;;4979693;28;20502;-68
2022/10/22 10:07:21;;;;;;;0.43;0.13;;;14.30;99.90;;;;;;4986838;28;20030;-68
2022/10/22 10:09:47;;;;;;;0.00;0.00;;;14.50;99.90;;;;;;4991827;28;20038;-69
2022/10/22 10:12:43;;;;;;;0.00;0.00;;;14.60;99.90;;;;;;4989428;28;20384;-68
2022/10/22 10:15:39;;;;;;;0.00;0.00;;;14.80;99.90;;;;;;4986026;28;20033;-70
2022/10/22 10:18:32;;;;;;;0.47;0.15;;;14.90;99.90;;;;;;4990788;28;20029;-69
2022/10/22 10:21:30;;;;;;;0.00;0.00;;;15.00;99.90;;;;;;4994613;28;21463;-71
2022/10/22 10:24:19;;;;;;;0.00;0.00;;;15.00;99.90;;;;;;4989793;28;20459;-69
2022/10/22 10:27:01;;;;;;;0.00;0.00;;;15.10;99.90;;;;;;4990876;28;20949;-79
2022/10/22 10:29:32;;;;;;;0.10;0.10;;;15.20;99.90;;;;;;4998482;28;20030;-79
2022/10/22 10:32:26;;;;;;;0.00;0.00;;;15.20;99.90;;;;;;4995765;28;20030;-62
2022/10/22 10:35:24;;;;;;;0.00;0.00;;;15.20;99.90;;;;;;5143473;22;20060;-82
2022/10/22 10:38:27;;;;;;;0.00;0.00;;;15.30;99.90;;;;;;4974551;28;20133;-79
2022/10/22 10:41:49;;;;;;;0.00;0.00;;;15.30;99.90;;;;;;4981831;28;20395;-77
2022/10/22 10:44:45;;;;;;;0.17;0.17;;;15.30;99.90;;;;;;4905824;29;20171;-79
2022/10/22 10:47:52;;;;;;;0.17;0.17;;;15.40;99.90;;;;;;4982059;28;20018;-78
2022/10/22 10:50:53;;;;;;;0.00;0.00;;;15.50;99.90;;;;;;4991720;28;20633;-78
2022/10/22 10:53:39;;;;;;;0.03;0.03;;;15.60;99.90;;;;;;4989509;28;20030;-77
2022/10/22 10:56:16;;;;;;;0.00;0.00;;;15.60;99.90;;;;;;4987770;28;20025;-76
2022/10/22 10:59:02;;;;;;;0.00;0.00;;;15.70;99.90;;;;;;4982233;28;20062;-77
2022/10/22 11:02:14;;;;;;;0.00;0.00;;;15.70;99.90;;;;;;4992940;28;20030;-77
2022/10/22 11:05:15;;;;;;;0.00;0.00;;;15.90;99.90;;;;;;5004035;28;20482;-77
2022/10/22 11:15:00;;;;;;;0.00;0.00;;;16.30;99.90;;;;;;5021451;23;20048;-79
2022/10/22 11:17:37;;;;;;;0.10;0.10;;;16.50;99.90;;;;;;5002060;28;20044;-81
2022/10/22 11:20:20;;;;;;;0.00;0.00;;;16.70;99.90;;;;;;5021418;28;20087;-75
2022/10/22 11:23:00;;;;;;;0.00;0.00;;;16.70;99.90;;;;;;5003253;28;20140;-76
2022/10/22 11:25:43;;;;;;;0.00;0.00;;;16.80;99.90;;;;;;5004264;28;20153;-79
2022/10/22 11:28:32;;;;;;;0.00;0.00;;;16.90;99.90;;;;;;5015591;28;20121;-79
2022/10/22 11:31:12;;;;;;;0.08;0.08;;;17.20;99.90;;;;;;5010887;28;20114;-80
2022/10/22 11:34:21;;;;;;;0.00;0.00;;;17.30;99.90;;;;;;4994082;28;20370;-77
2022/10/22 11:36:54;;;;;;;0.05;0.05;;;17.40;99.90;;;;;;5010352;28;20022;-80
2022/10/22 11:39:37;;;;;;;0.00;0.00;;;17.40;99.90;;;;;;5003649;28;20552;-72
2022/10/22 11:42:11;;;;;;;0.10;0.10;;;17.30;99.90;;;;;;5005460;28;20037;-70
2022/10/22 11:44:48;;;;;;;0.00;0.00;;;17.30;99.90;;;;;;5008203;28;20730;-70
2022/10/22 11:47:22;;;;;;;0.00;0.00;;;17.20;99.90;;;;;;4999921;28;20076;-71
2022/10/22 11:50:36;;;;;;;0.00;0.00;;;17.20;99.90;;;;;;5001842;28;20026;-71
2022/10/22 11:53:04;;;;;;;0.00;0.00;;;17.10;99.90;;;;;;4991925;28;20109;-71
2022/10/22 11:55:44;;;;;;;0.00;0.00;;;17.00;99.90;;;;;;5001818;28;20041;-71
2022/10/22 11:58:30;;;;;;;0.00;0.00;;;17.00;99.90;;;;;;5002969;28;20029;-72
2022/10/22 12:01:00;;;;;;;0.00;0.00;;;16.90;99.90;;;;;;5004845;28;20037;-71
2022/10/22 12:03:50;;;;;;;0.00;0.00;;;16.80;99.90;;;;;;5003799;28;20112;-74
2022/10/22 12:06:27;;;;;;;0.00;0.00;;;16.90;99.90;;;;;;5006072;28;20414;-71
2022/10/22 12:09:06;;;;;;;0.00;0.00;;;16.90;99.90;;;;;;5000631;28;20022;-73
2022/10/22 12:11:36;;;;;;;0.00;0.00;;;16.90;99.90;;;;;;5001708;28;20478;-73
2022/10/22 12:14:26;;;;;;;0.00;0.00;;;16.90;99.90;;;;;;5010142;28;20018;-75
2022/10/22 12:17:07;;;;;;;0.00;0.00;;;16.90;99.90;;;;;;4991220;28;20033;-72
2022/10/22 12:19:39;;;;;;;0.08;0.08;;;16.80;99.90;;;;;;5010260;28;20026;-76
2022/10/22 12:22:21;;;;;;;0.00;0.00;;;16.90;99.90;;;;;;5013664;28;20017;-72
2022/10/22 12:24:48;;;;;;;0.05;0.00;;;16.90;99.90;;;;;;5013162;28;20036;-69
2022/10/22 12:27:24;;;;;;;0.00;0.00;;;16.80;99.90;;;;;;5013978;28;20032;-70
2022/10/22 12:29:58;;;;;;;0.00;0.00;;;16.80;99.90;;;;;;5012898;28;20782;-77
2022/10/22 12:32:35;;;;;;;0.00;0.00;;;16.90;99.90;;;;;;5007710;28;20112;-76
2022/10/22 12:35:21;;;;;;;0.00;0.00;;;16.80;99.90;;;;;;5006851;28;20033;-77
2022/10/22 12:38:07;;;;;;;0.00;0.00;;;16.70;99.90;;;;;;5010772;28;20017;-76
2022/10/22 12:40:35;;;;;;;0.00;0.00;;;16.60;99.90;;;;;;5014047;28;20053;-76
2022/10/22 12:43:12;;;;;;;0.00;0.00;;;16.50;99.90;;;;;;4998375;28;20034;-77
2022/10/22 12:45:44;;;;;;;0.00;0.00;;;16.50;99.90;;;;;;5014535;28;20493;-77
2022/10/22 12:48:15;;;;;;;0.00;0.00;;;16.40;99.90;;;;;;5010401;28;20018;-76
2022/10/22 12:50:44;;;;;;;0.00;0.00;;;16.40;99.90;;;;;;5005703;28;20095;-77
2022/10/22 12:53:19;;;;;;;0.00;0.00;;;16.30;99.90;;;;;;5014548;28;20044;-76
2022/10/22 12:55:49;;;;;;;0.00;0.00;;;16.20;99.90;;;;;;5014659;28;20022;-76
2022/10/22 12:58:30;;;;;;;0.00;0.00;;;16.20;99.90;;;;;;5011705;28;20013;-76
2022/10/22 13:01:00;;;;;;;0.00;0.00;;;16.20;99.90;;;;;;5016209;28;20025;-76
2022/10/22 13:04:00;;;;;;;0.03;0.03;;;16.10;99.90;;;;;;5005199;28;20025;-76
2022/10/22 13:06:27;;;;;;;0.00;0.00;;;16.10;99.90;;;;;;5006611;28;20034;-77
2022/10/22 13:09:05;;;;;;;0.00;0.00;;;16.00;99.90;;;;;;5009282;28;21369;-77
2022/10/22 13:11:36;;;;;;;0.00;0.00;;;16.00;99.90;;;;;;5008335;28;20069;-78
2022/10/22 13:14:26;;;;;;;0.00;0.00;;;15.90;99.90;;;;;;4995102;28;20025;-77
2022/10/22 13:17:14;;;;;;;0.00;0.00;;;15.80;99.90;;;;;;4995159;28;20128;-77
2022/10/22 13:19:52;;;;;;;0.00;0.00;;;15.80;99.90;;;;;;5008118;28;20029;-77
2022/10/22 13:22:34;;;;;;;0.00;0.00;;;15.70;99.90;;;;;;4994235;28;20071;-77
2022/10/22 13:25:17;;;;;;;0.00;0.00;;;15.70;99.90;;;;;;4999348;28;20034;-78
2022/10/22 13:27:52;;;;;;;0.00;0.00;;;15.70;99.90;;;;;;5002682;28;20425;-77
2022/10/22 13:30:24;;;;;;;0.00;0.00;;;15.70;99.90;;;;;;4997327;28;20021;-77
2022/10/22 13:32:53;;;;;;;0.03;0.03;;;15.70;99.90;;;;;;5019100;28;20044;-77
2022/10/22 13:35:25;;;;;;;0.00;0.00;;;15.60;99.90;;;;;;5012188;28;20014;-77